createdAt,value
2022-12-10T00:00:17.335Z,100618.38
2022-12-10T00:02:46.039Z,100625.09
2022-12-10T00:05:14.608Z,100609.63
2022-12-10T00:07:44.810Z,100620.81
2022-12-10T00:10:13.822Z,100618.94
2022-12-10T00:12:43.120Z,100609.28
2022-12-10T00:15:12.917Z,100612.66
2022-12-10T00:17:41.847Z,100607.34
2022-12-10T00:20:11.504Z,100616.72
2022-12-10T00:22:41.341Z,100615.88
2022-12-10T00:25:13.508Z,100623.59
2022-12-10T00:27:41.985Z,100617.41
2022-12-10T00:30:17.865Z,100619.94
2022-12-10T00:32:47.950Z,100624.09
2022-12-10T00:35:17.484Z,100635.22
2022-12-10T00:37:47.374Z,100619.53
2022-12-10T00:40:17.575Z,100610.94
2022-12-10T00:42:46.010Z,100612.59
2022-12-10T00:45:15.494Z,100610.84
2022-12-10T00:47:44.032Z,100605.63
2022-12-10T00:50:12.977Z,100614.19
2022-12-10T00:52:41.588Z,100614.25
2022-12-10T00:55:10.775Z,100619.38
2022-12-10T00:57:40.818Z,100607.31
2022-12-10T01:00:11.210Z,100605.56
2022-12-10T01:02:42.356Z,100599.47
2022-12-10T01:05:15.723Z,100611.50
2022-12-10T01:07:44.659Z,100618.31
2022-12-10T01:10:13.298Z,100628.69
2022-12-10T01:12:44.320Z,100610.53
2022-12-10T01:15:12.942Z,100617.41
2022-12-10T01:17:41.625Z,100625.13
2022-12-10T01:20:11.755Z,100622.59
2022-12-10T01:22:40.599Z,100621.69
2022-12-10T01:25:10.627Z,100622.59
2022-12-10T01:27:46.684Z,100617.41
2022-12-10T01:30:15.315Z,100619.16
2022-12-10T01:32:46.078Z,100607.88
2022-12-10T01:35:15.223Z,100619.16
2022-12-10T01:37:43.886Z,100607.88
2022-12-10T01:40:14.058Z,100608.78
2022-12-10T01:42:42.850Z,100619.16
2022-12-10T01:45:15.964Z,100607.81
2022-12-10T01:47:44.470Z,100605.34
2022-12-10T01:50:13.267Z,100610.47
2022-12-10T01:52:41.777Z,100600.94
2022-12-10T01:55:40.436Z,100605.41
2022-12-10T01:58:11.147Z,100598.47
2022-12-10T02:00:51.260Z,100598.47
2022-12-10T02:03:27.409Z,100594.13
2022-12-10T02:13:13.125Z,100608.31
2022-12-10T02:15:48.881Z,100601.38
2022-12-10T02:18:23.867Z,100594.44
2022-12-10T02:20:58.429Z,100592.75
2022-12-10T02:23:32.939Z,100590.22
2022-12-10T02:26:11.738Z,100585.03
2022-12-10T02:28:48.037Z,100585.94
2022-12-10T02:31:22.929Z,100587.63
2022-12-10T02:33:58.912Z,100580.75
2022-12-10T02:36:35.447Z,100589.34
2022-12-10T02:39:07.718Z,100592.69
2022-12-10T02:41:40.167Z,100589.31
2022-12-10T02:44:16.433Z,100590.06
2022-12-10T02:46:48.752Z,100588.25
2022-12-10T02:49:20.525Z,100586.59
2022-12-10T02:51:50.426Z,100585.66
2022-12-10T02:54:43.325Z,100590.06
2022-12-10T02:57:37.744Z,100583.16
2022-12-10T03:00:13.600Z,100588.31
2022-12-10T03:02:58.663Z,100579.69
2022-12-10T03:05:38.498Z,100588.31
2022-12-10T03:08:16.314Z,100584.75
2022-12-10T03:10:55.421Z,100583.16
2022-12-10T03:13:31.878Z,100578.94
2022-12-10T03:16:02.713Z,100581.59
2022-12-10T03:18:35.968Z,100575.56
2022-12-10T03:21:09.299Z,100574.69
2022-12-10T03:23:46.207Z,100564.50
2022-12-10T03:26:15.488Z,100569.69
2022-12-10T03:29:15.882Z,100565.44
2022-12-10T03:31:55.124Z,100566.44
2022-12-10T03:34:26.726Z,100559.66
2022-12-10T03:36:56.862Z,100569.09
2022-12-10T03:39:31.851Z,100563.09
2022-12-10T03:42:03.204Z,100561.38
2022-12-10T03:44:32.687Z,100569.16
2022-12-10T03:47:02.047Z,100554.50
2022-12-10T03:49:33.306Z,100556.19
2022-12-10T03:52:08.082Z,100557.03
2022-12-10T03:54:54.781Z,100551.84
2022-12-10T03:57:24.057Z,100552.63
2022-12-10T04:00:22.484Z,100553.53
2022-12-10T04:02:53.145Z,100552.59
2022-12-10T04:06:08.917Z,100558.50
2022-12-10T04:08:58.298Z,100560.03
2022-12-10T04:11:27.661Z,100563.31
2022-12-10T04:14:40.722Z,100564.22
2022-12-10T04:17:57.840Z,100548.66
2022-12-10T04:21:19.073Z,100546.84
2022-12-10T04:24:07.497Z,100542.47
2022-12-10T04:26:53.582Z,100538.28
2022-12-10T04:29:22.464Z,100537.44
2022-12-10T04:31:52.237Z,100540.06
2022-12-10T04:34:21.645Z,100530.72
2022-12-10T04:36:50.855Z,100530.72
2022-12-10T04:39:32.023Z,100530.88
2022-12-10T04:42:04.214Z,100530.00
2022-12-10T04:44:32.862Z,100525.69
2022-12-10T04:47:02.204Z,100531.78
2022-12-10T04:49:33.262Z,100525.69
2022-12-10T04:52:01.980Z,100527.38
2022-12-10T04:54:38.782Z,100545.47
2022-12-10T04:57:08.448Z,100540.88
2022-12-10T04:59:38.566Z,100529.75
2022-12-10T05:02:09.040Z,100528.84
2022-12-10T05:04:37.711Z,100528.00
2022-12-10T05:07:12.140Z,100535.75
2022-12-10T05:09:42.548Z,100528.75
2022-12-10T05:12:12.152Z,100528.75
2022-12-10T05:14:40.856Z,100531.41
2022-12-10T05:18:14.752Z,100532.25
2022-12-10T05:20:44.669Z,100534.03
2022-12-10T05:24:27.150Z,100526.31
2022-12-10T05:27:24.795Z,100523.72
2022-12-10T05:30:45.053Z,100528.00
2022-12-10T05:33:52.903Z,100516.56
2022-12-10T05:40:45.152Z,100524.34
2022-12-10T05:43:45.129Z,100527.75
2022-12-10T05:46:16.992Z,100513.09
2022-12-10T05:48:47.217Z,100513.94
2022-12-10T05:51:18.153Z,100536.38
2022-12-10T05:53:47.452Z,100518.28
2022-12-10T05:56:35.947Z,100524.22
2022-12-10T06:03:05.226Z,100518.19
2022-12-10T06:05:40.466Z,100518.94
2022-12-10T06:08:10.075Z,100504.50
2022-12-10T06:10:52.718Z,100508.00
2022-12-10T06:13:22.506Z,100510.66
2022-12-10T06:15:57.179Z,100509.75
2022-12-10T06:18:26.029Z,100520.97
2022-12-10T06:20:56.173Z,100510.66
2022-12-10T06:23:24.605Z,100519.22
2022-12-10T06:25:55.844Z,100517.47
2022-12-10T06:28:25.270Z,100522.63
2022-12-10T06:30:54.079Z,100527.00
2022-12-10T06:33:23.977Z,100524.41
2022-12-10T06:35:53.416Z,100517.44
2022-12-10T06:38:25.667Z,100530.44
2022-12-10T06:40:55.438Z,100523.56
2022-12-10T06:43:25.339Z,100514.94
2022-12-10T06:45:54.239Z,100519.31
2022-12-10T06:48:23.773Z,100518.38
2022-12-10T06:51:19.313Z,100540.81
2022-12-10T06:53:50.416Z,100524.34
2022-12-10T06:56:21.619Z,100521.63
2022-12-10T06:58:51.443Z,100519.13
2022-12-10T07:01:22.405Z,100532.09
2022-12-10T07:03:52.375Z,100517.25
2022-12-10T07:06:21.775Z,100533.72
2022-12-10T07:08:57.915Z,100527.69
2022-12-10T07:11:27.806Z,100525.88
2022-12-10T07:13:57.435Z,100525.72
2022-12-10T07:16:29.425Z,100520.47
2022-12-10T07:19:00.607Z,100523.06
2022-12-10T07:21:31.561Z,100531.69
2022-12-10T07:24:04.972Z,100529.09
2022-12-10T07:26:35.854Z,100534.19
2022-12-10T07:29:07.812Z,100529.81
2022-12-10T07:31:36.776Z,100540.22
2022-12-10T07:34:06.414Z,100536.72
2022-12-10T07:36:35.231Z,100529.00
2022-12-10T07:39:09.732Z,100541.19
2022-12-10T07:41:40.416Z,100528.25
2022-12-10T07:44:14.037Z,100525.81
2022-12-10T07:46:42.840Z,100523.91
2022-12-10T07:49:17.315Z,100513.66
2022-12-10T07:51:51.334Z,100520.63
2022-12-10T07:54:21.635Z,100526.66
2022-12-10T07:56:50.755Z,100524.97
2022-12-10T07:59:19.566Z,100522.34
2022-12-10T08:01:50.604Z,100524.06
2022-12-10T08:04:19.208Z,100527.56
2022-12-10T08:06:57.742Z,100525.88
2022-12-10T08:09:31.546Z,100527.63
2022-12-10T08:12:00.485Z,100537.09
2022-12-10T08:14:29.368Z,100524.88
2022-12-10T08:16:58.001Z,100521.38
2022-12-10T08:19:31.696Z,100519.78
2022-12-10T08:22:03.340Z,100521.44
2022-12-10T08:24:33.825Z,100523.22
2022-12-10T08:27:03.367Z,100523.28
2022-12-10T08:29:38.136Z,100522.44
2022-12-10T08:32:44.429Z,100527.56
2022-12-10T08:35:16.092Z,100540.38
2022-12-10T08:37:47.561Z,100529.25
2022-12-10T08:40:19.022Z,100533.50
2022-12-10T08:42:54.300Z,100536.00
2022-12-10T08:45:28.176Z,100524.88
2022-12-10T08:48:04.404Z,100539.47
2022-12-10T08:50:35.366Z,100544.56
2022-12-10T08:53:49.740Z,100541.22
2022-12-10T08:56:29.851Z,100544.63
2022-12-10T08:59:12.677Z,100545.47
2022-12-10T09:01:54.973Z,100548.13
2022-12-10T09:04:27.459Z,100543.78
2022-12-10T09:07:02.837Z,100550.75
2022-12-10T09:09:33.384Z,100544.72
2022-12-10T09:12:04.278Z,100551.66
2022-12-10T09:14:34.749Z,100550.00
2022-12-10T09:17:06.888Z,100541.19
2022-12-10T09:20:01.476Z,100550.75
2022-12-10T09:22:31.920Z,100554.25
2022-12-10T09:25:12.046Z,100545.72
2022-12-10T09:27:42.335Z,100542.34
2022-12-10T09:30:13.255Z,100550.13
2022-12-10T09:32:42.906Z,100553.41
2022-12-10T09:35:41.776Z,100556.00
2022-12-10T09:38:31.928Z,100548.16
2022-12-10T09:41:08.358Z,100546.31
2022-12-10T09:44:56.625Z,100551.56
2022-12-10T09:50:22.222Z,100557.47
2022-12-10T09:53:10.774Z,100560.94
2022-12-10T09:55:50.216Z,100558.13
2022-12-10T09:58:30.043Z,100557.28
2022-12-10T10:01:04.130Z,100548.69
2022-12-10T10:03:40.992Z,100546.78
2022-12-10T10:06:15.832Z,100550.25
2022-12-10T10:08:56.699Z,100554.38
2022-12-10T10:11:33.309Z,100553.41
2022-12-10T10:14:08.016Z,100557.59
2022-12-10T10:16:50.839Z,100560.13
2022-12-10T10:19:24.562Z,100563.56
2022-12-10T10:21:55.503Z,100555.91
2022-12-10T10:24:36.517Z,100559.31
2022-12-10T10:27:16.937Z,100578.13
2022-12-10T10:29:55.927Z,100586.13
2022-12-10T10:32:51.769Z,100587.06
2022-12-10T10:35:32.192Z,100577.75
2022-12-10T10:38:14.273Z,100571.72
2022-12-10T10:40:49.402Z,100571.66
2022-12-10T10:43:24.456Z,100576.09
2022-12-10T10:46:06.472Z,100584.53
2022-12-10T10:48:41.096Z,100579.34
2022-12-10T10:51:21.616Z,100573.31
2022-12-10T10:54:08.598Z,100575.09
2022-12-10T10:56:45.136Z,100566.31
2022-12-10T10:59:32.911Z,100577.47
2022-12-10T11:02:19.100Z,100571.25
2022-12-10T11:05:29.262Z,100581.19
2022-12-10T11:28:13.296Z,100578.06
2022-12-10T11:50:24.575Z,100564.16
2022-12-10T12:15:53.526Z,100544.41
2022-12-10T12:18:27.824Z,100546.31
2022-12-10T12:21:01.179Z,100549.72
2022-12-10T12:23:36.162Z,100549.81
2022-12-10T12:26:14.157Z,100550.78
2022-12-10T12:28:50.770Z,100560.03
2022-12-10T12:31:26.034Z,100559.19
2022-12-10T12:34:05.518Z,100550.56
2022-12-10T12:36:49.324Z,100542.09
2022-12-10T12:39:34.843Z,100543.03
2022-12-10T12:42:16.457Z,100547.44
2022-12-10T12:45:05.257Z,100546.53
2022-12-10T12:47:46.203Z,100546.38
2022-12-10T12:50:27.028Z,100548.28
2022-12-10T12:52:59.431Z,100536.16
2022-12-10T12:55:40.904Z,100534.53
2022-12-10T12:58:30.443Z,100531.13
2022-12-10T13:01:06.192Z,100537.16
2022-12-10T13:03:39.556Z,100544.59
2022-12-10T13:06:25.171Z,100538.88
2022-12-10T13:09:18.559Z,100538.88
2022-12-10T13:12:31.415Z,100543.94
2022-12-10T13:15:20.257Z,100544.03
2022-12-10T13:18:22.116Z,100544.69
2022-12-10T13:20:54.621Z,100543.94
2022-12-10T13:23:37.086Z,100546.19
2022-12-10T13:26:26.794Z,100550.84
2022-12-10T13:29:14.018Z,100551.56
2022-12-10T13:31:45.052Z,100556.06
2022-12-10T13:34:34.081Z,100546.09
2022-12-10T13:37:32.753Z,100544.63
2022-12-10T13:40:26.724Z,100543.28
2022-12-10T13:43:39.284Z,100543.34
2022-12-10T13:46:27.335Z,100542.38
2022-12-10T13:48:57.760Z,100540.56
2022-12-10T13:51:52.892Z,100533.00
2022-12-10T13:54:56.551Z,100535.66
2022-12-10T13:57:40.725Z,100532.28
2022-12-10T14:00:16.487Z,100530.56
2022-12-10T14:03:11.110Z,100538.41
2022-12-10T14:06:14.002Z,100546.94
2022-12-10T14:09:03.213Z,100543.63
2022-12-10T14:12:27.032Z,100540.28
2022-12-10T15:19:19.571Z,100570.34
2022-12-10T15:27:24.086Z,100566.94
2022-12-10T15:38:33.917Z,100570.56
2022-12-10T15:51:27.379Z,100581.19
2022-12-10T16:01:45.042Z,100588.22
2022-12-10T16:10:01.697Z,100592.56
2022-12-10T16:18:14.808Z,100589.06
2022-12-10T16:23:22.019Z,100589.03
2022-12-10T16:28:40.422Z,100588.44
2022-12-10T17:02:21.849Z,100602.88
2022-12-10T17:04:50.840Z,100602.75
2022-12-10T17:08:11.812Z,100606.91
2022-12-10T17:11:16.387Z,100607.72
2022-12-10T17:13:54.215Z,100600.00
2022-12-10T17:25:45.062Z,100612.22
2022-12-10T17:28:23.278Z,100608.72
2022-12-10T17:31:19.436Z,100606.06
2022-12-10T17:33:51.823Z,100616.50
2022-12-10T17:36:38.585Z,100622.59
2022-12-10T17:39:22.136Z,100615.59
2022-12-10T17:42:17.702Z,100609.66
2022-12-10T17:45:22.420Z,100604.50
2022-12-10T17:48:14.877Z,100608.06
2022-12-10T17:51:09.338Z,100615.72
2022-12-10T17:53:38.966Z,100607.06
2022-12-10T17:56:16.118Z,100607.81
2022-12-10T17:58:46.680Z,100603.31
2022-12-10T18:01:17.389Z,100598.25
2022-12-10T18:03:50.860Z,100593.84
2022-12-10T18:06:22.413Z,100589.56
2022-12-10T18:08:51.916Z,100601.63
2022-12-10T18:11:22.618Z,100602.59
2022-12-10T18:13:53.525Z,100603.31
2022-12-10T18:16:28.779Z,100597.28
2022-12-10T18:19:01.637Z,100598.13
2022-12-10T18:21:30.986Z,100598.13
2022-12-10T18:23:59.577Z,100602.44
2022-12-10T18:26:28.661Z,100596.38
2022-12-10T18:29:00.737Z,100603.31
2022-12-10T18:31:32.530Z,100603.22
2022-12-10T18:34:05.270Z,100599.84
2022-12-10T18:36:37.829Z,100605.81
2022-12-10T18:39:08.483Z,100603.16
2022-12-10T18:41:38.140Z,100596.22
2022-12-10T18:44:07.657Z,100601.28
2022-12-10T18:46:39.840Z,100604.78
2022-12-10T18:49:12.147Z,100599.59
2022-12-10T18:51:40.689Z,100596.06
2022-12-10T18:54:10.541Z,100595.22
2022-12-10T18:56:41.829Z,100599.56
2022-12-10T18:59:17.077Z,100596.91
2022-12-10T19:01:49.302Z,100601.19
2022-12-10T19:04:21.507Z,100604.63
2022-12-10T19:06:50.080Z,100603.72
2022-12-10T19:09:20.905Z,100596.84
2022-12-10T19:11:52.713Z,100589.91
2022-12-10T19:14:24.017Z,100596.84
2022-12-10T19:17:01.540Z,100597.66
2022-12-10T19:22:07.579Z,100587.38
2022-12-10T19:32:22.628Z,100591.47
2022-12-10T20:36:27.789Z,100599.81
2022-12-10T20:43:36.298Z,100586.84
2022-12-10T21:01:05.649Z,100600.88
2022-12-10T21:03:49.346Z,100607.75
2022-12-10T21:07:19.750Z,100613.00
2022-12-10T21:10:21.711Z,100606.00
2022-12-10T21:13:30.374Z,100606.88
2022-12-10T21:23:28.095Z,100616.38
2022-12-10T21:26:02.103Z,100613.78
2022-12-10T21:29:07.508Z,100612.06
2022-12-10T21:31:51.794Z,100621.56
2022-12-10T21:39:25.008Z,100612.78
2022-12-10T21:42:54.984Z,100628.34
2022-12-10T21:49:38.694Z,100620.56
2022-12-10T21:52:55.324Z,100623.94
2022-12-10T21:55:48.813Z,100622.19
2022-12-10T22:12:25.484Z,100621.09
2022-12-10T22:15:08.402Z,100613.25
2022-12-10T22:17:39.543Z,100622.78
2022-12-10T22:20:19.030Z,100612.31
2022-12-10T22:22:48.322Z,100610.59
2022-12-10T22:25:26.051Z,100608.06
2022-12-10T22:28:17.784Z,100605.31
2022-12-10T22:30:47.803Z,100604.41
2022-12-10T22:33:20.494Z,100611.34
2022-12-10T22:36:00.906Z,100599.19
2022-12-10T22:38:44.300Z,100607.91
2022-12-10T22:41:35.624Z,100595.88
2022-12-10T22:44:58.343Z,100602.88
2022-12-10T22:48:50.341Z,100608.75
2022-12-10T22:52:21.444Z,100616.59
2022-12-10T22:59:18.254Z,100616.59
2022-12-10T23:01:52.334Z,100618.34
2022-12-10T23:04:27.398Z,100618.38
2022-12-10T23:07:02.174Z,100623.56
2022-12-10T23:09:45.728Z,100635.59
2022-12-10T23:12:38.819Z,100627.75
2022-12-10T23:15:34.903Z,100630.34
2022-12-10T23:18:19.400Z,100625.97
2022-12-10T23:20:51.486Z,100631.16
2022-12-10T23:23:27.772Z,100632.06
2022-12-10T23:26:23.780Z,100644.25
2022-12-10T23:32:13.617Z,100614.09
2022-12-10T23:35:00.173Z,100619.25
2022-12-10T23:37:47.911Z,100618.53
2022-12-10T23:40:18.948Z,100626.22
2022-12-10T23:42:58.413Z,100629.56
2022-12-10T23:45:31.518Z,100619.09
2022-12-10T23:48:57.537Z,100631.16
2022-12-10T23:51:30.415Z,100633.84
2022-12-10T23:54:00.120Z,100628.72
2022-12-10T23:56:28.843Z,100641.72
2022-12-10T23:58:57.698Z,100638.16
